sensor_id;sensor_type;location;lat;lon;timestamp;pressure;altitude;pressure_sealevel;temperature;humidity
14800;BME280;7491;57.750;11.970;2024-02-04T00:01:21;75480.84;;;-142.11;100.00
14800;BME280;7491;57.750;11.970;2024-02-04T00:03:48;75466.56;;;-142.11;100.00
14800;BME280;7491;57.750;11.970;2024-02-04T00:06:14;75464.53;;;-142.11;100.00
14800;BME280;7491;57.750;11.970;2024-02-04T00:08:41;75466.56;;;-142.11;100.00
14800;BME280;7491;57.750;11.970;2024-02-04T00:11:08;75466.56;;;-142.11;100.00
14800;BME280;7491;57.750;11.970;2024-02-04T00:13:38;75460.44;;;-142.11;100.00
14800;BME280;7491;57.750;11.970;2024-02-04T00:16:05;75495.09;;;-142.11;100.00
14800;BME280;7491;57.750;11.970;2024-02-04T00:18:32;75474.72;;;-142.11;100.00
14800;BME280;7491;57.750;11.970;2024-02-04T00:20:58;75486.94;;;-142.11;100.00
14800;BME280;7491;57.750;11.970;2024-02-04T00:23:25;75482.88;;;-142.11;100.00
14800;BME280;7491;57.750;11.970;2024-02-04T00:25:51;75474.72;;;-142.11;100.00
14800;BME280;7491;57.750;11.970;2024-02-04T00:28:18;75474.72;;;-142.11;100.00
14800;BME280;7491;57.750;11.970;2024-02-04T00:30:47;75480.84;;;-142.11;100.00
14800;BME280;7491;57.750;11.970;2024-02-04T00:33:15;75495.09;;;-142.11;100.00
14800;BME280;7491;57.750;11.970;2024-02-04T00:35:41;75486.94;;;-142.11;100.00
14800;BME280;7491;57.750;11.970;2024-02-04T00:38:08;75482.88;;;-142.11;100.00
14800;BME280;7491;57.750;11.970;2024-02-04T00:40:35;75515.47;;;-142.11;100.00
14800;BME280;7491;57.750;11.970;2024-02-04T00:43:01;75511.41;;;-142.11;100.00
14800;BME280;7491;57.750;11.970;2024-02-04T00:45:28;75507.34;;;-142.11;100.00
14800;BME280;7491;57.750;11.970;2024-02-04T00:47:56;75505.28;;;-142.11;100.00
14800;BME280;7491;57.750;11.970;2024-02-04T00:50:22;75515.47;;;-142.11;100.00
14800;BME280;7491;57.750;11.970;2024-02-04T00:52:49;75519.56;;;-142.11;100.00
14800;BME280;7491;57.750;11.970;2024-02-04T00:55:18;75519.56;;;-142.11;100.00
14800;BME280;7491;57.750;11.970;2024-02-04T00:57:45;75521.59;;;-142.11;100.00
14800;BME280;7491;57.750;11.970;2024-02-04T01:00:12;75523.63;;;-142.11;100.00
14800;BME280;7491;57.750;11.970;2024-02-04T01:02:39;75535.88;;;-142.11;100.00
14800;BME280;7491;57.750;11.970;2024-02-04T01:05:07;75539.94;;;-142.11;100.00
14800;BME280;7491;57.750;11.970;2024-02-04T01:07:34;75531.78;;;-142.11;100.00
14800;BME280;7491;57.750;11.970;2024-02-04T01:10:00;75544.03;;;-142.11;100.00
14800;BME280;7491;57.750;11.970;2024-02-04T01:12:27;75554.22;;;-142.11;100.00
14800;BME280;7491;57.750;11.970;2024-02-04T01:14:54;75541.97;;;-142.11;100.00
14800;BME280;7491;57.750;11.970;2024-02-04T01:17:20;75566.44;;;-142.11;100.00
14800;BME280;7491;57.750;11.970;2024-02-04T01:19:47;75556.25;;;-142.11;100.00
14800;BME280;7491;57.750;11.970;2024-02-04T01:22:15;75541.97;;;-142.11;100.00
14800;BME280;7491;57.750;11.970;2024-02-04T01:24:42;75546.06;;;-142.11;100.00
14800;BME280;7491;57.750;11.970;2024-02-04T01:27:08;75544.03;;;-142.11;100.00
14800;BME280;7491;57.750;11.970;2024-02-04T01:29:35;75544.03;;;-142.11;100.00
14800;BME280;7491;57.750;11.970;2024-02-04T01:32:01;75533.81;;;-142.11;100.00
14800;BME280;7491;57.750;11.970;2024-02-04T01:34:28;75544.03;;;-142.11;100.00
14800;BME280;7491;57.750;11.970;2024-02-04T01:36:54;75533.81;;;-142.11;100.00
14800;BME280;7491;57.750;11.970;2024-02-04T01:39:23;75533.81;;;-142.11;100.00
14800;BME280;7491;57.750;11.970;2024-02-04T01:41:50;75539.94;;;-142.11;100.00
14800;BME280;7491;57.750;11.970;2024-02-04T01:44:17;75523.63;;;-142.11;100.00
14800;BME280;7491;57.750;11.970;2024-02-04T01:46:45;75531.78;;;-142.11;100.00
14800;BME280;7491;57.750;11.970;2024-02-04T01:49:11;75541.97;;;-142.11;100.00
14800;BME280;7491;57.750;11.970;2024-02-04T01:51:38;75535.88;;;-142.11;100.00
14800;BME280;7491;57.750;11.970;2024-02-04T01:54:05;75537.91;;;-142.11;100.00
14800;BME280;7491;57.750;11.970;2024-02-04T01:56:34;75531.78;;;-142.11;100.00
14800;BME280;7491;57.750;11.970;2024-02-04T01:59:02;75529.75;;;-142.11;100.00
14800;BME280;7491;57.750;11.970;2024-02-04T02:01:28;75515.47;;;-142.11;100.00
14800;BME280;7491;57.750;11.970;2024-02-04T02:03:55;75519.56;;;-142.11;100.00
14800;BME280;7491;57.750;11.970;2024-02-04T02:06:22;75517.53;;;-142.11;100.00
14800;BME280;7491;57.750;11.970;2024-02-04T02:08:50;75523.63;;;-142.11;100.00
14800;BME280;7491;57.750;11.970;2024-02-04T02:11:23;75523.63;;;-142.11;100.00
14800;BME280;7491;57.750;11.970;2024-02-04T02:13:57;75515.47;;;-142.11;100.00
14800;BME280;7491;57.750;11.970;2024-02-04T02:16:29;75517.53;;;-142.11;100.00
14800;BME280;7491;57.750;11.970;2024-02-04T02:19:02;75535.88;;;-142.11;100.00
14800;BME280;7491;57.750;11.970;2024-02-04T02:21:41;75523.63;;;-142.11;100.00
14800;BME280;7491;57.750;11.970;2024-02-04T02:24:14;75537.91;;;-142.11;100.00
14800;BME280;7491;57.750;11.970;2024-02-04T02:26:43;75544.03;;;-142.11;100.00
14800;BME280;7491;57.750;11.970;2024-02-04T02:29:10;75539.94;;;-142.11;100.00
14800;BME280;7491;57.750;11.970;2024-02-04T02:31:38;75539.94;;;-142.11;100.00
14800;BME280;7491;57.750;11.970;2024-02-04T02:34:06;75537.91;;;-142.11;100.00
14800;BME280;7491;57.750;11.970;2024-02-04T02:36:39;75539.94;;;-142.11;100.00
14800;BME280;7491;57.750;11.970;2024-02-04T02:39:09;75507.34;;;-142.11;100.00
14800;BME280;7491;57.750;11.970;2024-02-04T02:41:43;75531.78;;;-142.11;100.00
14800;BME280;7491;57.750;11.970;2024-02-04T02:44:11;75519.56;;;-142.11;100.00
14800;BME280;7491;57.750;11.970;2024-02-04T02:46:39;75509.38;;;-142.11;100.00
14800;BME280;7491;57.750;11.970;2024-02-04T02:49:06;75509.38;;;-142.11;100.00
14800;BME280;7491;57.750;11.970;2024-02-04T02:51:33;75511.41;;;-142.11;100.00
14800;BME280;7491;57.750;11.970;2024-02-04T02:54:00;75495.09;;;-142.11;100.00
14800;BME280;7491;57.750;11.970;2024-02-04T02:56:26;75503.25;;;-142.11;100.00
14800;BME280;7491;57.750;11.970;2024-02-04T02:58:54;75509.38;;;-142.11;100.00
14800;BME280;7491;57.750;11.970;2024-02-04T03:01:21;75491.03;;;-142.11;100.00
14800;BME280;7491;57.750;11.970;2024-02-04T03:03:49;75501.22;;;-142.11;100.00
14800;BME280;7491;57.750;11.970;2024-02-04T03:06:15;75474.72;;;-142.11;100.00
14800;BME280;7491;57.750;11.970;2024-02-04T03:08:42;75458.41;;;-142.11;100.00
14800;BME280;7491;57.750;11.970;2024-02-04T03:11:08;75470.66;;;-142.11;100.00
14800;BME280;7491;57.750;11.970;2024-02-04T03:13:38;75462.50;;;-142.11;100.00
14800;BME280;7491;57.750;11.970;2024-02-04T03:16:09;75454.34;;;-142.11;100.00
14800;BME280;7491;57.750;11.970;2024-02-04T03:18:39;75466.56;;;-142.11;100.00
14800;BME280;7491;57.750;11.970;2024-02-04T03:21:11;75436.00;;;-142.11;100.00
14800;BME280;7491;57.750;11.970;2024-02-04T03:23:38;75436.00;;;-142.11;100.00
14800;BME280;7491;57.750;11.970;2024-02-04T03:26:04;75431.91;;;-142.11;100.00
14800;BME280;7491;57.750;11.970;2024-02-04T03:28:31;75429.88;;;-142.11;100.00
14800;BME280;7491;57.750;11.970;2024-02-04T03:30:58;75413.56;;;-142.11;100.00
14800;BME280;7491;57.750;11.970;2024-02-04T03:33:26;75399.31;;;-142.11;100.00
14800;BME280;7491;57.750;11.970;2024-02-04T03:35:52;75407.47;;;-142.11;100.00
14800;BME280;7491;57.750;11.970;2024-02-04T03:38:19;75399.31;;;-142.11;100.00
14800;BME280;7491;57.750;11.970;2024-02-04T03:40:46;75383.00;;;-142.11;100.00
14800;BME280;7491;57.750;11.970;2024-02-04T03:43:14;75387.09;;;-142.11;100.00
14800;BME280;7491;57.750;11.970;2024-02-04T03:45:41;75385.03;;;-142.11;100.00
14800;BME280;7491;57.750;11.970;2024-02-04T03:48:07;75378.94;;;-142.11;100.00
14800;BME280;7491;57.750;11.970;2024-02-04T03:50:36;75368.75;;;-142.11;100.00
14800;BME280;7491;57.750;11.970;2024-02-04T03:53:03;75387.09;;;-142.11;100.00
14800;BME280;7491;57.750;11.970;2024-02-04T03:55:30;75364.66;;;-142.11;100.00
14800;BME280;7491;57.750;11.970;2024-02-04T03:57:57;75366.72;;;-142.11;100.00
14800;BME280;7491;57.750;11.970;2024-02-04T04:00:24;75362.63;;;-142.11;100.00
14800;BME280;7491;57.750;11.970;2024-02-04T04:02:51;75372.81;;;-142.11;100.00
14800;BME280;7491;57.750;11.970;2024-02-04T04:05:17;75395.25;;;-142.11;100.00
14800;BME280;7491;57.750;11.970;2024-02-04T04:07:45;75370.78;;;-142.11;100.00
14800;BME280;7491;57.750;11.970;2024-02-04T04:10:12;75383.00;;;-142.11;100.00
14800;BME280;7491;57.750;11.970;2024-02-04T04:12:39;75383.00;;;-142.11;100.00
14800;BME280;7491;57.750;11.970;2024-02-04T04:15:06;75360.59;;;-142.11;100.00
14800;BME280;7491;57.750;11.970;2024-02-04T04:17:33;75368.75;;;-142.11;100.00
14800;BME280;7491;57.750;11.970;2024-02-04T04:19:59;75368.75;;;-142.11;100.00
14800;BME280;7491;57.750;11.970;2024-02-04T04:22:26;75372.81;;;-142.11;100.00
14800;BME280;7491;57.750;11.970;2024-02-04T04:24:54;75346.31;;;-142.11;100.00
14800;BME280;7491;57.750;11.970;2024-02-04T04:27:20;75346.31;;;-142.11;100.00
14800;BME280;7491;57.750;11.970;2024-02-04T04:29:47;75340.22;;;-142.11;100.00
14800;BME280;7491;57.750;11.970;2024-02-04T04:32:13;75362.63;;;-142.11;100.00
14800;BME280;7491;57.750;11.970;2024-02-04T04:34:40;75340.22;;;-142.11;100.00
14800;BME280;7491;57.750;11.970;2024-02-04T04:37:07;75346.31;;;-142.11;100.00
14800;BME280;7491;57.750;11.970;2024-02-04T04:39:33;75350.41;;;-142.11;100.00
14800;BME280;7491;57.750;11.970;2024-02-04T04:42:01;75336.13;;;-142.11;100.00
14800;BME280;7491;57.750;11.970;2024-02-04T04:44:28;75327.97;;;-142.11;100.00
14800;BME280;7491;57.750;11.970;2024-02-04T04:46:54;75332.06;;;-142.11;100.00
14800;BME280;7491;57.750;11.970;2024-02-04T04:49:21;75334.09;;;-142.11;100.00
14800;BME280;7491;57.750;11.970;2024-02-04T04:51:47;75319.81;;;-142.11;100.00
14800;BME280;7491;57.750;11.970;2024-02-04T04:54:14;75301.50;;;-142.11;100.00
14800;BME280;7491;57.750;11.970;2024-02-04T04:56:41;75315.75;;;-142.11;100.00
14800;BME280;7491;57.750;11.970;2024-02-04T04:59:09;75293.34;;;-142.11;100.00
14800;BME280;7491;57.750;11.970;2024-02-04T05:01:36;75323.91;;;-142.11;100.00
14800;BME280;7491;57.750;11.970;2024-02-04T05:04:03;75289.25;;;-142.11;100.00
14800;BME280;7491;57.750;11.970;2024-02-04T05:06:29;75305.56;;;-142.11;100.00
14800;BME280;7491;57.750;11.970;2024-02-04T05:08:56;75287.22;;;-142.11;100.00
14800;BME280;7491;57.750;11.970;2024-02-04T05:11:23;75295.38;;;-142.11;100.00
14800;BME280;7491;57.750;11.970;2024-02-04T05:13:49;75295.38;;;-142.11;100.00
14800;BME280;7491;57.750;11.970;2024-02-04T05:16:17;75287.22;;;-142.11;100.00
14800;BME280;7491;57.750;11.970;2024-02-04T05:18:44;75283.16;;;-142.11;100.00
14800;BME280;7491;57.750;11.970;2024-02-04T05:21:10;75279.06;;;-142.11;100.00
14800;BME280;7491;57.750;11.970;2024-02-04T05:23:37;75277.03;;;-142.11;100.00
14800;BME280;7491;57.750;11.970;2024-02-04T05:26:04;75275.00;;;-142.11;100.00
14800;BME280;7491;57.750;11.970;2024-02-04T05:28:31;75254.63;;;-142.11;100.00
14800;BME280;7491;57.750;11.970;2024-02-04T05:30:57;75264.81;;;-142.11;100.00
14800;BME280;7491;57.750;11.970;2024-02-04T05:33:25;75246.47;;;-142.11;100.00
14800;BME280;7491;57.750;11.970;2024-02-04T05:35:52;75240.34;;;-142.11;100.00
14800;BME280;7491;57.750;11.970;2024-02-04T05:38:19;75219.97;;;-142.11;100.00
14800;BME280;7491;57.750;11.970;2024-02-04T05:40:45;75228.13;;;-142.11;100.00
14800;BME280;7491;57.750;11.970;2024-02-04T05:43:12;75226.09;;;-142.11;100.00
14800;BME280;7491;57.750;11.970;2024-02-04T05:45:39;75222.00;;;-142.11;100.00
14800;BME280;7491;57.750;11.970;2024-02-04T05:48:07;75224.03;;;-142.11;100.00
14800;BME280;7491;57.750;11.970;2024-02-04T05:50:35;75211.81;;;-142.11;100.00
14800;BME280;7491;57.750;11.970;2024-02-04T05:53:02;75199.59;;;-142.11;100.00
14800;BME280;7491;57.750;11.970;2024-02-04T05:55:29;75203.66;;;-142.11;100.00
14800;BME280;7491;57.750;11.970;2024-02-04T05:57:55;75177.16;;;-142.11;100.00
14800;BME280;7491;57.750;11.970;2024-02-04T06:00:23;75164.94;;;-142.11;100.00
14800;BME280;7491;57.750;11.970;2024-02-04T06:02:49;75185.31;;;-142.11;100.00
14800;BME280;7491;57.750;11.970;2024-02-04T06:05:16;75175.13;;;-142.11;100.00
14800;BME280;7491;57.750;11.970;2024-02-04T06:07:44;75183.28;;;-142.11;100.00
14800;BME280;7491;57.750;11.970;2024-02-04T06:10:11;75158.84;;;-142.11;100.00
14800;BME280;7491;57.750;11.970;2024-02-04T06:12:38;75150.69;;;-142.11;100.00
14800;BME280;7491;57.750;11.970;2024-02-04T06:15:12;75152.72;;;-142.11;100.00
14800;BME280;7491;57.750;11.970;2024-02-04T06:17:38;75152.72;;;-142.11;100.00
14800;BME280;7491;57.750;11.970;2024-02-04T06:20:05;75152.72;;;-142.11;100.00
14800;BME280;7491;57.750;11.970;2024-02-04T06:22:34;75136.41;;;-142.11;100.00
14800;BME280;7491;57.750;11.970;2024-02-04T06:25:02;75130.31;;;-142.11;100.00
14800;BME280;7491;57.750;11.970;2024-02-04T06:27:29;75146.59;;;-142.11;100.00
14800;BME280;7491;57.750;11.970;2024-02-04T06:29:55;75130.31;;;-142.11;100.00
14800;BME280;7491;57.750;11.970;2024-02-04T06:32:22;75132.34;;;-142.11;100.00
14800;BME280;7491;57.750;11.970;2024-02-04T06:34:49;75101.78;;;-142.11;100.00
14800;BME280;7491;57.750;11.970;2024-02-04T06:37:16;75111.97;;;-142.11;100.00
14800;BME280;7491;57.750;11.970;2024-02-04T06:39:43;75120.13;;;-142.11;100.00
14800;BME280;7491;57.750;11.970;2024-02-04T06:42:11;75118.06;;;-142.11;100.00
14800;BME280;7491;57.750;11.970;2024-02-04T06:44:37;75105.84;;;-142.11;100.00
14800;BME280;7491;57.750;11.970;2024-02-04T06:47:04;75111.97;;;-142.11;100.00
14800;BME280;7491;57.750;11.970;2024-02-04T06:49:31;75126.22;;;-142.11;100.00
14800;BME280;7491;57.750;11.970;2024-02-04T06:51:57;75103.81;;;-142.11;100.00
14800;BME280;7491;57.750;11.970;2024-02-04T06:54:24;75095.66;;;-142.11;100.00
14800;BME280;7491;57.750;11.970;2024-02-04T06:56:51;75118.06;;;-142.11;100.00
14800;BME280;7491;57.750;11.970;2024-02-04T06:59:19;75103.81;;;-142.11;100.00
14800;BME280;7491;57.750;11.970;2024-02-04T07:01:45;75101.78;;;-142.11;100.00
14800;BME280;7491;57.750;11.970;2024-02-04T07:04:12;75097.69;;;-142.11;100.00
14800;BME280;7491;57.750;11.970;2024-02-04T07:06:39;75073.25;;;-142.11;100.00
14800;BME280;7491;57.750;11.970;2024-02-04T07:09:05;75101.78;;;-142.11;100.00
14800;BME280;7491;57.750;11.970;2024-02-04T07:11:32;75091.59;;;-142.11;100.00
14800;BME280;7491;57.750;11.970;2024-02-04T07:13:59;75095.66;;;-142.11;100.00
14800;BME280;7491;57.750;11.970;2024-02-04T07:16:27;75091.59;;;-142.11;100.00
14800;BME280;7491;57.750;11.970;2024-02-04T07:18:54;75095.66;;;-142.11;100.00
14800;BME280;7491;57.750;11.970;2024-02-04T07:21:21;75101.78;;;-142.11;100.00
14800;BME280;7491;57.750;11.970;2024-02-04T07:23:47;75077.31;;;-142.11;100.00
14800;BME280;7491;57.750;11.970;2024-02-04T07:26:14;75083.44;;;-142.11;100.00
14800;BME280;7491;57.750;11.970;2024-02-04T07:28:41;75079.34;;;-142.11;100.00
14800;BME280;7491;57.750;11.970;2024-02-04T07:31:07;75081.41;;;-142.11;100.00
14800;BME280;7491;57.750;11.970;2024-02-04T07:33:35;75079.34;;;-142.11;100.00
14800;BME280;7491;57.750;11.970;2024-02-04T07:36:02;75079.34;;;-142.11;100.00
14800;BME280;7491;57.750;11.970;2024-02-04T07:38:29;75081.41;;;-142.11;100.00
14800;BME280;7491;57.750;11.970;2024-02-04T07:40:56;75083.44;;;-142.11;100.00
14800;BME280;7491;57.750;11.970;2024-02-04T07:43:24;75081.41;;;-142.11;100.00
14800;BME280;7491;57.750;11.970;2024-02-04T07:45:51;75079.34;;;-142.11;100.00
14800;BME280;7491;57.750;11.970;2024-02-04T07:48:18;75103.81;;;-142.11;100.00
14800;BME280;7491;57.750;11.970;2024-02-04T07:50:46;75081.41;;;-142.11;100.00
14800;BME280;7491;57.750;11.970;2024-02-04T07:53:13;75095.66;;;-142.11;100.00
14800;BME280;7491;57.750;11.970;2024-02-04T07:55:39;75089.53;;;-142.11;100.00
14800;BME280;7491;57.750;11.970;2024-02-04T07:58:06;75085.47;;;-142.11;100.00
14800;BME280;7491;57.750;11.970;2024-02-04T08:00:33;75083.44;;;-142.11;100.00
14800;BME280;7491;57.750;11.970;2024-02-04T08:02:59;75079.34;;;-142.11;100.00
14800;BME280;7491;57.750;11.970;2024-02-04T08:05:26;75075.28;;;-142.11;100.00
14800;BME280;7491;57.750;11.970;2024-02-04T08:07:54;75073.25;;;-142.11;100.00
14800;BME280;7491;57.750;11.970;2024-02-04T08:10:20;75069.16;;;-142.11;100.00
14800;BME280;7491;57.750;11.970;2024-02-04T08:12:47;75065.09;;;-142.11;100.00
14800;BME280;7491;57.750;11.970;2024-02-04T08:15:16;75071.19;;;-142.11;100.00
14800;BME280;7491;57.750;11.970;2024-02-04T08:17:42;75061.00;;;-142.11;100.00
14800;BME280;7491;57.750;11.970;2024-02-04T08:20:10;75061.00;;;-142.11;100.00
14800;BME280;7491;57.750;11.970;2024-02-04T08:22:37;75063.06;;;-142.11;100.00
14800;BME280;7491;57.750;11.970;2024-02-04T08:25:05;75046.75;;;-142.11;100.00
14800;BME280;7491;57.750;11.970;2024-02-04T08:27:32;75063.06;;;-142.11;100.00
14800;BME280;7491;57.750;11.970;2024-02-04T08:29:59;75061.00;;;-142.11;100.00
14800;BME280;7491;57.750;11.970;2024-02-04T08:32:25;75052.88;;;-142.11;100.00
14800;BME280;7491;57.750;11.970;2024-02-04T08:34:52;75054.91;;;-142.11;100.00
14800;BME280;7491;57.750;11.970;2024-02-04T08:37:18;75054.91;;;-142.11;100.00
14800;BME280;7491;57.750;11.970;2024-02-04T08:39:45;75067.13;;;-142.11;100.00
14800;BME280;7491;57.750;11.970;2024-02-04T08:42:13;75038.59;;;-142.11;100.00
14800;BME280;7491;57.750;11.970;2024-02-04T08:44:40;75050.81;;;-142.11;100.00
14800;BME280;7491;57.750;11.970;2024-02-04T08:47:08;75038.59;;;-142.11;100.00
14800;BME280;7491;57.750;11.970;2024-02-04T08:49:35;75036.56;;;-142.11;100.00
14800;BME280;7491;57.750;11.970;2024-02-04T08:52:02;75022.28;;;-142.11;100.00
14800;BME280;7491;57.750;11.970;2024-02-04T08:54:29;75030.44;;;-142.11;100.00
14800;BME280;7491;57.750;11.970;2024-02-04T08:56:55;75028.41;;;-142.11;100.00
14800;BME280;7491;57.750;11.970;2024-02-04T08:59:23;75024.34;;;-142.11;100.00
14800;BME280;7491;57.750;11.970;2024-02-04T09:01:50;75006.00;;;-142.11;100.00
14800;BME280;7491;57.750;11.970;2024-02-04T09:04:17;74995.81;;;-142.11;100.00
14800;BME280;7491;57.750;11.970;2024-02-04T09:06:44;74997.84;;;-142.11;100.00
14800;BME280;7491;57.750;11.970;2024-02-04T09:09:10;74991.72;;;-142.11;100.00
14800;BME280;7491;57.750;11.970;2024-02-04T09:11:37;74993.75;;;-142.11;100.00
14800;BME280;7491;57.750;11.970;2024-02-04T09:14:03;74995.81;;;-142.11;100.00
14800;BME280;7491;57.750;11.970;2024-02-04T09:16:31;74985.63;;;-142.11;100.00
14800;BME280;7491;57.750;11.970;2024-02-04T09:18:58;74993.75;;;-142.11;100.00
14800;BME280;7491;57.750;11.970;2024-02-04T09:21:25;74993.75;;;-142.11;100.00
14800;BME280;7491;57.750;11.970;2024-02-04T09:23:51;74997.84;;;-142.11;100.00
14800;BME280;7491;57.750;11.970;2024-02-04T09:26:18;74989.69;;;-142.11;100.00
14800;BME280;7491;57.750;11.970;2024-02-04T09:28:45;75006.00;;;-142.11;100.00
14800;BME280;7491;57.750;11.970;2024-02-04T09:31:11;74999.88;;;-142.11;100.00
14800;BME280;7491;57.750;11.970;2024-02-04T09:33:40;74997.84;;;-142.11;100.00
14800;BME280;7491;57.750;11.970;2024-02-04T09:36:07;75024.34;;;-142.11;100.00
14800;BME280;7491;57.750;11.970;2024-02-04T09:38:33;74989.69;;;-142.11;100.00
14800;BME280;7491;57.750;11.970;2024-02-04T09:41:00;75006.00;;;-142.11;100.00
14800;BME280;7491;57.750;11.970;2024-02-04T09:43:30;75010.06;;;-142.11;100.00
14800;BME280;7491;57.750;11.970;2024-02-04T09:45:57;75018.22;;;-142.11;100.00
14800;BME280;7491;57.750;11.970;2024-02-04T09:48:25;74997.84;;;-142.11;100.00
14800;BME280;7491;57.750;11.970;2024-02-04T09:50:53;74997.84;;;-142.11;100.00
14800;BME280;7491;57.750;11.970;2024-02-04T09:53:21;74993.75;;;-142.11;100.00
14800;BME280;7491;57.750;11.970;2024-02-04T09:55:52;74991.72;;;-142.11;100.00
14800;BME280;7491;57.750;11.970;2024-02-04T09:58:20;74993.75;;;-142.11;100.00
14800;BME280;7491;57.750;11.970;2024-02-04T10:00:47;75008.03;;;-142.11;100.00
14800;BME280;7491;57.750;11.970;2024-02-04T10:03:14;74995.81;;;-142.11;100.00
14800;BME280;7491;57.750;11.970;2024-02-04T10:05:41;74987.66;;;-142.11;100.00
14800;BME280;7491;57.750;11.970;2024-02-04T10:08:09;74969.31;;;-142.11;100.00
14800;BME280;7491;57.750;11.970;2024-02-04T10:10:35;74983.56;;;-142.11;100.00
14800;BME280;7491;57.750;11.970;2024-02-04T10:13:06;74995.81;;;-142.11;100.00
14800;BME280;7491;57.750;11.970;2024-02-04T10:15:33;74993.75;;;-142.11;100.00
14800;BME280;7491;57.750;11.970;2024-02-04T10:18:03;74981.53;;;-142.11;100.00
14800;BME280;7491;57.750;11.970;2024-02-04T10:20:30;74993.75;;;-142.11;100.00
14800;BME280;7491;57.750;11.970;2024-02-04T10:22:57;74989.69;;;-142.11;100.00
14800;BME280;7491;57.750;11.970;2024-02-04T10:25:26;74987.66;;;-142.11;100.00
14800;BME280;7491;57.750;11.970;2024-02-04T10:27:53;75001.91;;;-142.11;100.00
14800;BME280;7491;57.750;11.970;2024-02-04T10:30:20;75012.09;;;-142.11;100.00
14800;BME280;7491;57.750;11.970;2024-02-04T10:32:47;75003.97;;;-142.11;100.00
14800;BME280;7491;57.750;11.970;2024-02-04T10:35:13;75008.03;;;-142.11;100.00
14800;BME280;7491;57.750;11.970;2024-02-04T10:37:40;75006.00;;;-142.11;100.00
14800;BME280;7491;57.750;11.970;2024-02-04T10:40:07;75006.00;;;-142.11;100.00
14800;BME280;7491;57.750;11.970;2024-02-04T10:42:37;75018.22;;;-142.11;100.00
14800;BME280;7491;57.750;11.970;2024-02-04T10:45:08;75014.16;;;-142.11;100.00
14800;BME280;7491;57.750;11.970;2024-02-04T10:47:37;75014.16;;;-142.11;100.00
14800;BME280;7491;57.750;11.970;2024-02-04T10:50:06;75012.09;;;-142.11;100.00
14800;BME280;7491;57.750;11.970;2024-02-04T10:52:36;74977.47;;;-142.11;100.00
14800;BME280;7491;57.750;11.970;2024-02-04T10:55:07;74981.53;;;-142.11;100.00
14800;BME280;7491;57.750;11.970;2024-02-04T10:57:37;74973.38;;;-142.11;100.00
14800;BME280;7491;57.750;11.970;2024-02-04T11:00:05;74983.56;;;-142.11;100.00
14800;BME280;7491;57.750;11.970;2024-02-04T11:02:35;74983.56;;;-142.11;100.00
14800;BME280;7491;57.750;11.970;2024-02-04T11:05:03;74979.50;;;-142.11;100.00
14800;BME280;7491;57.750;11.970;2024-02-04T11:07:33;74975.44;;;-142.11;100.00
14800;BME280;7491;57.750;11.970;2024-02-04T11:10:00;74963.19;;;-142.11;100.00
14800;BME280;7491;57.750;11.970;2024-02-04T11:12:28;74979.50;;;-142.11;100.00
14800;BME280;7491;57.750;11.970;2024-02-04T11:14:58;74959.13;;;-142.11;100.00
14800;BME280;7491;57.750;11.970;2024-02-04T11:17:43;74955.03;;;-142.11;100.00
14800;BME280;7491;57.750;11.970;2024-02-04T11:20:25;74973.38;;;-142.11;100.00
14800;BME280;7491;57.750;11.970;2024-02-04T11:23:19;74957.09;;;-142.11;100.00
14800;BME280;7491;57.750;11.970;2024-02-04T11:25:51;74981.53;;;-142.11;100.00
14800;BME280;7491;57.750;11.970;2024-02-04T11:28:21;74979.50;;;-142.11;100.00
14800;BME280;7491;57.750;11.970;2024-02-04T11:30:49;74955.03;;;-142.11;100.00
14800;BME280;7491;57.750;11.970;2024-02-04T11:33:18;74940.78;;;-142.11;100.00
14800;BME280;7491;57.750;11.970;2024-02-04T11:35:45;74950.97;;;-142.11;100.00
14800;BME280;7491;57.750;11.970;2024-02-04T11:38:12;74950.97;;;-142.11;100.00
14800;BME280;7491;57.750;11.970;2024-02-04T11:40:43;74953.00;;;-142.11;100.00
14800;BME280;7491;57.750;11.970;2024-02-04T11:43:12;74957.09;;;-142.11;100.00
14800;BME280;7491;57.750;11.970;2024-02-04T11:45:39;74959.13;;;-142.11;100.00
14800;BME280;7491;57.750;11.970;2024-02-04T11:48:09;74955.03;;;-142.11;100.00
14800;BME280;7491;57.750;11.970;2024-02-04T11:50:36;74950.97;;;-142.11;100.00
14800;BME280;7491;57.750;11.970;2024-02-04T11:53:05;74957.09;;;-142.11;100.00
14800;BME280;7491;57.750;11.970;2024-02-04T11:55:33;74955.03;;;-142.11;100.00
14800;BME280;7491;57.750;11.970;2024-02-04T11:58:00;74969.31;;;-142.11;100.00
14800;BME280;7491;57.750;11.970;2024-02-04T12:00:27;74967.28;;;-142.11;100.00
14800;BME280;7491;57.750;11.970;2024-02-04T12:03:03;74967.28;;;-142.11;100.00
14800;BME280;7491;57.750;11.970;2024-02-04T12:05:33;74959.13;;;-142.11;100.00
14800;BME280;7491;57.750;11.970;2024-02-04T12:08:02;74948.94;;;-142.11;100.00
14800;BME280;7491;57.750;11.970;2024-02-04T12:10:30;74965.25;;;-142.11;100.00
14800;BME280;7491;57.750;11.970;2024-02-04T12:12:57;74959.13;;;-142.11;100.00
14800;BME280;7491;57.750;11.970;2024-02-04T12:15:25;74940.78;;;-142.11;100.00
14800;BME280;7491;57.750;11.970;2024-02-04T12:17:51;74932.63;;;-142.11;100.00
14800;BME280;7491;57.750;11.970;2024-02-04T12:20:18;74940.78;;;-142.11;100.00
14800;BME280;7491;57.750;11.970;2024-02-04T12:22:46;74930.59;;;-142.11;100.00
14800;BME280;7491;57.750;11.970;2024-02-04T12:25:14;74942.81;;;-142.11;100.00
14800;BME280;7491;57.750;11.970;2024-02-04T12:27:41;74932.63;;;-142.11;100.00
14800;BME280;7491;57.750;11.970;2024-02-04T12:30:09;74932.63;;;-142.11;100.00
14800;BME280;7491;57.750;11.970;2024-02-04T12:32:35;74946.91;;;-142.11;100.00